• Join FlightAware (Why Join?)
  • Login
  • US Flag 
12:35PM EDT


 

Airport Tracker/Info


-or-


 

Live Flight TrackerFlight Track Log ✈ N99AT ✈ 15-Apr-2014 ✈ KTYS - KAPF

Flight Track Log - Related Links

Times and Time Zones

All times are in EDT time to prevent confusion due to time zone crossing. See the N99AT flight status page for this flight to view local times or setup timezone preferences in your user account.

Time Position Orientation Groundspeed Altitude Reporting Facility
EDT Latitude Longitude Course Direction KTS MPH feet Rate Location/Type
02:52PM 35.8350 -83.9081 122° Southeast 225 259 6,200  Level Atlanta Center
02:53PM 35.8017 -83.8417 122° Southeast 244 281 7,000 660 Climbing Atlanta Center
02:54PM 35.7450 -83.7828 140° Southeast 254 292 7,600 900 Climbing Atlanta Center
02:55PM 35.6678 -83.7603 167° South 262 302 8,900 2,700 Climbing Atlanta Center
02:57PM 35.5031 -83.7072 165° South 301 346 15,800 3,420 Climbing Atlanta Center
02:58PM 35.4172 -83.6794 165° South 301 346 19,300 3,300 Climbing Atlanta Center
02:59PM 35.3464 -83.6542 164° South 287 330 22,400 2,400 Climbing Atlanta Center
03:00PM 35.2669 -83.6317 167° South 282 325 24,100 2,340 Climbing Atlanta Center
03:01PM 35.1897 -83.6297 179° South 282 325 27,100 2,400 Climbing Atlanta Center
03:02PM 35.1147 -83.6428 188° South 274 315 28,900 1,680 Climbing Atlanta Center
03:03PM 35.0375 -83.6558 188° South 274 315 30,500 1,560 Climbing Atlanta Center
03:04PM 34.9542 -83.6689 187° South 285 328 32,100 1,440 Climbing Atlanta Center
03:05PM 34.8811 -83.6792 187° South 300 345 33,400 1,200 Climbing Atlanta Center
03:06PM 34.7956 -83.6922 187° South 305 351 34,600 1,140 Climbing Atlanta Center
03:07PM 34.7122 -83.7053 187° South 310 357 35,700 1,140 Climbing Atlanta Center
03:08PM 34.6244 -83.7208 188° South 316 364 36,900 1,140 Climbing Atlanta Center
03:09PM 34.5431 -83.7361 189° South 310 357 38,000 960 Climbing Atlanta Center
03:10PM 34.4472 -83.7517 188° South 316 364 38,900 840 Climbing Atlanta Center
03:11PM 34.3594 -83.7669 188° South 316 364 39,700 720 Climbing Atlanta Center
03:12PM 34.2697 -83.7800 187° South 321 369 40,400 600 Climbing Atlanta Center
03:13PM 34.1800 -83.7953 188° South 321 369 41,000 600 Climbing Atlanta Center
03:14PM 34.0883 -83.8106 188° South 333 383 41,600 600 Climbing Atlanta Center
03:15PM 33.9964 -83.8258 188° South 333 383 42,200 600 Climbing Atlanta Center
03:16PM 33.9067 -83.8411 188° South 333 383 42,800 360 Climbing Atlanta Center
03:17PM 33.8233 -83.8536 187° South 333 383 43,000 60 Climbing Atlanta Center
03:18PM 33.7314 -83.8714 189° South 333 383 43,000  Level Atlanta Center
03:19PM 33.6314 -83.8867 187° South 339 390 43,000  Level Atlanta Center
03:20PM 33.5353 -83.9017 187° South 356 410 43,000  Level Atlanta Center
03:21PM 33.4372 -83.9194 189° South 356 410 43,000  Level Atlanta Center
03:22PM 33.3267 -83.9369 188° South 356 410 43,000  Level Atlanta Center
03:23PM 33.2306 -83.9544 189° South 361 415 43,000  Level Atlanta Center
03:24PM 33.1325 -83.9694 187° South 366 421 43,000  Level Atlanta Center
03:25PM 33.0344 -83.9867 188° South 361 415 43,000  Level Atlanta Center
03:26PM 32.9383 -84.0017 187° South 356 410 43,000  Level Atlanta Center
03:27PM 32.8403 -84.0167 187° South 351 404 43,000  Level Atlanta Center
03:28PM 32.7444 -84.0339 189° South 351 404 43,000  Level Atlanta Center
03:29PM 32.6461 -84.0511 188° South 351 404 43,000  Level Atlanta Center
03:30PM 32.5481 -84.0633 186° South 351 404 43,000  Level Atlanta Center
03:31PM 32.4522 -84.0806 189° South 351 404 43,000  Level Atlanta Center
03:32PM 32.3539 -84.0978 188° South 351 404 43,000  Level Atlanta Center
03:33PM 32.2558 -84.1125 187° South 351 404 43,000  Level Atlanta Center
03:34PM 32.1578 -84.1272 187° South 351 404 43,000  Level Atlanta Center
03:35PM 32.0556 -84.1442 188° South 358 412 43,000  Level Atlanta Center
03:36PM 31.9389 -84.1631 188° South 357 411 43,000  Level Jacksonville Center
03:37PM 31.8364 -84.1764 186° South 357 411 43,000  Level Jacksonville Center
03:38PM 31.7339 -84.1944 189° South 367 422 43,000  Level Jacksonville Center
03:39PM 31.6314 -84.2103 187° South 372 428 43,000  Level Jacksonville Center
03:40PM 31.5289 -84.2258 187° South 372 428 43,000  Level Jacksonville Center
03:41PM 31.4264 -84.2414 187° South 372 428 43,000  Level Jacksonville Center
03:42PM 31.3242 -84.2569 187° South 372 428 43,000  Level Jacksonville Center
03:43PM 31.2217 -84.2725 187° South 372 428 43,000  Level Jacksonville Center
03:44PM 31.1192 -84.2881 187° South 372 428 43,000  Level Jacksonville Center
03:45PM 31.0144 -84.3058 188° South 372 428 43,000  Level Jacksonville Center
03:46PM 30.9119 -84.3211 187° South 372 428 43,000  Level Jacksonville Center
03:47PM 30.8094 -84.3367 187° South 372 428 43,000  Level Jacksonville Center
03:48PM 30.7069 -84.3519 187° South 372 428 43,000  Level Jacksonville Center
03:49PM 30.6044 -84.3672 187° South 372 428 43,000  Level Jacksonville Center
03:50PM 30.5089 -84.3417 167° South 372 428 43,000 -60 Level Jacksonville Center
03:51PM 30.4072 -84.2750 151° Southeast 379 436 42,900 -60 Descending Jacksonville Center
03:52PM 30.2931 -84.2061 152° Southeast 402 463 42,900  Level Jacksonville Center
03:53PM 30.2039 -84.1447 149° Southeast 410 472 42,900  Level Jacksonville Center
03:54PM 30.1022 -84.0761 150° Southeast 416 479 42,900  Level Jacksonville Center
03:55PM 29.9986 -84.0103 151° Southeast 421 484 42,900  Level Jacksonville Center
03:56PM 29.8928 -83.9444 152° Southeast 421 484 42,900  Level Jacksonville Center
03:57PM 29.7889 -83.8786 151° Southeast 421 484 42,900  Level Jacksonville Center
03:58PM 29.6808 -83.8081 150° Southeast 427 491 42,900  Level Jacksonville Center
03:59PM 29.5769 -83.7403 150° Southeast 432 497 42,900  Level Jacksonville Center
04:00PM 29.4708 -83.6750 152° Southeast 432 497 42,900  Level Jacksonville Center
04:01PM 29.3647 -83.6050 150° Southeast 432 497 42,900  Level Jacksonville Center
04:02PM 29.2608 -83.5378 151° Southeast 432 497 42,900  Level Jacksonville Center
04:03PM 29.1567 -83.4703 150° Southeast 432 497 42,900  Level Jacksonville Center
04:04PM 29.0506 -83.4033 151° Southeast 437 503 42,900  Level Jacksonville Center
04:05PM 28.9442 -83.3458 155° Southeast 430 495 42,900 -60 Level Jacksonville Center
04:06PM 28.8358 -83.3381 176° South 404 465 42,800 -540 Descending Jacksonville Center
04:07PM 28.7272 -83.3425 182° South 399 459 41,900 -1,200 Descending Jacksonville Center
04:08PM 28.6186 -83.3489 183° South 394 453 40,500 -1,680 Descending Jacksonville Center
04:10PM 28.3914 -83.3564 182° South 383 441 36,800 -1,620 Descending Miami Center
04:11PM 28.2742 -83.3639 183° South 383 441 35,500 -960 Descending Miami Center
04:12PM 28.1800 -83.3703 183° South 392 451 34,900 -900 Descending Miami Center
04:13PM 28.0694 -83.3733 181° South 393 452 33,800 -1,440 Descending Miami Center
04:14PM 27.9528 -83.3689 178° South 406 467 32,100 -1,860 Descending Miami Center
04:15PM 27.8486 -83.3653 178° South 421 484 30,100 -2,220 Descending Miami Center
04:16PM 27.7036 -83.3428 172° South 432 497 27,700 -2,160 Descending Miami Center
04:17PM 27.6003 -83.2761 150° Southeast 427 491 25,800 -1,740 Descending Miami Center
04:18PM 27.4975 -83.1931 144° Southeast 438 504 24,300 -1,500 Descending Miami Center
04:19PM 27.4075 -83.1089 140° Southeast 438 504 22,800 -1,560 Descending Miami Center
04:20PM 27.3272 -83.0319 140° Southeast 407 468 21,200 -1,560 Descending Miami Center
04:21PM 27.2472 -82.9553 140° Southeast 394 453 19,700 -1,560 Descending Miami Center
04:22PM 27.1650 -82.8764 140° Southeast 389 448 18,100 -1,620 Descending Miami Center
04:23PM 27.0822 -82.8044 142° Southeast 389 448 16,500 -1,560 Descending Miami Center
04:24PM 27.0039 -82.7283 139° Southeast 383 441 15,000 -1,500 Descending Miami Center
04:25PM 26.9258 -82.6500 138° Southeast 378 435 13,600 -1,320 Descending Miami Center
04:26PM 26.8494 -82.5786 140° Southeast 378 435 12,400 -1,080 Descending Miami Center
04:27PM 26.7850 -82.5150 139° Southeast 361 415 11,500 -900 Descending Miami Center
04:28PM 26.7167 -82.4514 140° Southeast 333 383 10,700 -840 Descending Miami Center
04:29PM 26.6481 -82.3900 141° Southeast 320 368 9,900 -900 Descending Miami Center
04:30PM 26.5769 -82.3333 145° Southeast 300 345 9,000 -900 Descending Miami Center
04:31PM 26.5119 -82.2839 146° Southeast 292 336 8,100 -1,200 Descending Miami Center
04:32PM 26.4469 -82.2367 147° Southeast 287 330 6,700 -1,200 Descending Miami Center
04:33PM 26.3819 -82.1897 147° Southeast 287 330 5,800 -720 Descending Miami Center
04:34PM 26.3169 -82.1406 146° Southeast 287 330 5,300 -360 Descending Miami Center
04:35PM 26.2497 -82.0958 149° Southeast 287 330 5,100 -240 Descending Miami Center
04:38PM 26.0833 -81.9648 90° East  Level FlightAware Approximate
04:45PM 26.1500 -81.7667 66° East  Level FlightAware Approximate
04:46PM 26.1524 -81.7756 66° East  Level Estimated
04:47PM 26.1524 -81.7756 66° East  Level Estimated
04:48PM 26.1524 -81.7756 66° East  Level Estimated
04:49PM 26.1524 -81.7756 66° East  Level Estimated
04:50PM 26.1524 -81.7756 66° East  Level Estimated
04:51PM 26.1524 -81.7756 66° East  Level Estimated
04:52PM 26.1524 -81.7756 66° East  Level Estimated
04:53PM 26.1524 -81.7756 66° East  Level Estimated
04:54PM 26.1524 -81.7756 66° East  Level Estimated